• Join FlightAware (Why Join?)
  • Login
  • US Flag 
12:05PM EDT


 

Airport Tracker/Info


-or-


 

Live Flight TrackerFlight Track Log ✈ UPS9706 ✈ 02-May-2013 ✈ KMHR - KRNO

Flight Track Log - Related Links

Times and Time Zones

All times are in EDT time to prevent confusion due to time zone crossing. See the UPS9706 flight status page for this flight to view local times or setup timezone preferences in your user account.

Time Position Orientation Groundspeed Altitude Reporting Facility
EDT Latitude Longitude Course Direction KTS MPH feet Rate Location/Type
08:56PM 38.5380 -121.3100 188° South 192 221 2,500  Level FlightAware
08:57PM 38.5090 -121.2750 137° Southeast 249 287 4,800 3,480 Climbing FlightAware
08:58PM 38.5170 -121.2360 75° East 274 315 6,600 4,920 Climbing FlightAware
08:58PM 38.5460 -121.2040 41° Northeast 291 335 8,900 4,020 Climbing FlightAware
08:59PM 38.5880 -121.1600 39° Northeast 331 381 11,300 2,940 Climbing FlightAware
08:59PM 38.6490 -121.0990 38° Northeast 394 453 13,100 3,240 Climbing FlightAware
09:00PM 38.7130 -121.0510 30° Northeast 406 467 15,900 2,820 Climbing FlightAware
09:01PM 38.7880 -121.0230 16° North 424 488 16,900 660 Climbing FlightAware
09:02PM 38.8700 -120.9930 16° North 422 486 16,900  Level FlightAware
09:02PM 38.9410 -120.9510 25° Northeast 426 490 16,900 -120 Level FlightAware
09:04PM 39.0660 -120.7790 47° Northeast 426 490 16,700 -120 Descending FlightAware
09:05PM 39.1800 -120.6200 47° Northeast 423 487 16,700  Level FlightAware
09:06PM 39.2730 -120.4900 47° Northeast 426 490 16,700 -120 Level FlightAware
09:08PM 39.3810 -120.3380 47° Northeast 425 489 16,500 -480 Descending FlightAware
09:09PM 39.4500 -120.2420 47° Northeast 407 468 15,700 -1,800 Descending FlightAware
09:10PM 39.5180 -120.1450 48° Northeast 383 441 13,400 -3,480 Descending FlightAware
09:10PM 39.5640 -120.0820 47° Northeast 393 452 10,200 -2,280 Descending FlightAware
09:11PM 39.6160 -120.0110 46° Northeast 393 452 10,200  Level FlightAware
09:12PM 39.6700 -119.9390 46° Northeast 393 452 10,200 -1,140 Level FlightAware
09:13PM 39.6400 -119.8230 109° East 7,600 -1,680 Descending FlightAware
09:14PM 39.6270 -119.7770 110° East 209 241 7,300 -300 Descending FlightAware
09:14PM 39.6140 -119.7550 127° Southeast 209 241 7,300 -1,380 Level FlightAware
09:15PM 39.5750 -119.7660 192° South 157 181 5,600 -1,680 Descending FlightAware
09:15PM 39.5580 -119.7660 180° South 139 160 5,200 -660 Descending FlightAware
09:16PM 39.5330 -119.7670 182° South 137 158 4,900 -480 Descending FlightAware
09:23PM 39.4991 -119.7681 180° South  Level Estimated
09:24PM 39.4991 -119.7681 180° South  Level Estimated
09:25PM 39.4991 -119.7681 180° South  Level Estimated